Time;durP1;ratioP1;P1;durP2;ratioP2;P2;SDS_P1;SDS_P2;PMS_P1;PMS_P2;Temp;Humidity;BMP_temperature;BMP_pressure;BME280_temperature;BME280_humidity;BME280_pressure;Samples;Min_cycle;Max_cycle;Signal;HPM_P1;HPM_P2
2021/12/25 00:02:16;;;;;;;2.75;0.75;;;;;;;-2.91;79.74;100279.03;5045269;28;20130;-86
2021/12/25 00:04:42;;;;;;;0.32;0.30;;;;;;;-2.97;79.65;100284.78;5034710;28;20047;-86
2021/12/25 00:07:09;;;;;;;0.28;0.28;;;;;;;-3.02;80.42;100281.16;5009760;28;20052;-85
2021/12/25 00:09:38;;;;;;;2.38;0.63;;;;;;;-3.09;80.05;100289.41;5052811;28;20380;-86
2021/12/25 00:12:05;;;;;;;1.38;0.20;;;;;;;-3.15;79.94;100282.34;5026383;28;20052;-86
2021/12/25 00:14:32;;;;;;;1.23;0.40;;;;;;;-3.19;79.57;100283.06;5036051;28;20068;-86
2021/12/25 00:17:00;;;;;;;1.08;0.70;;;;;;;-3.26;79.85;100294.72;5065551;28;20470;-85
2021/12/25 00:19:30;;;;;;;0.68;0.40;;;;;;;-3.29;81.45;100299.69;5061631;28;20098;-86
2021/12/25 00:22:04;;;;;;;2.58;0.73;;;;;;;-3.35;81.06;100299.44;5048613;28;20048;-85
2021/12/25 00:24:33;;;;;;;0.65;0.65;;;;;;;-3.35;82.21;100312.25;5030896;28;20082;-86
2021/12/25 00:27:07;;;;;;;4.50;1.95;;;;;;;-3.32;81.91;100313.25;5071086;28;20115;-85
2021/12/25 00:29:57;;;;;;;;;;;;;;;-3.21;81.42;100321.38;5031380;28;20040;-85
2021/12/25 00:32:42;;;;;;;2.25;0.68;;;;;;;-3.11;79.89;100324.31;5047616;28;19924;-85
2021/12/25 00:35:10;;;;;;;0.32;0.32;;;;;;;-3.11;80.68;100332.00;5060898;28;20037;-85
2021/12/25 00:37:36;;;;;;;1.08;0.40;;;;;;;-3.09;80.30;100318.47;5039410;28;20041;-84
2021/12/25 00:40:05;;;;;;;0.25;0.20;;;;;;;-3.06;80.74;100326.25;5027881;28;20041;-85
2021/12/25 00:42:32;;;;;;;0.90;0.40;;;;;;;-3.04;81.08;100328.88;5025187;28;20056;-85
2021/12/25 00:44:59;;;;;;;0.32;0.32;;;;;;;-3.00;80.89;100335.84;5045170;28;20049;-85
2021/12/25 00:47:26;;;;;;;1.42;0.15;;;;;;;-3.00;80.93;100340.97;5049840;28;20056;-85
2021/12/25 00:49:53;;;;;;;0.30;0.28;;;;;;;-2.99;81.42;100340.19;5027798;28;20057;-85
2021/12/25 00:52:19;;;;;;;0.98;0.55;;;;;;;-2.96;82.07;100344.56;5047055;28;20397;-85
2021/12/25 00:54:46;;;;;;;1.95;0.65;;;;;;;-2.94;82.15;100354.03;5063599;28;20044;-86
2021/12/25 00:57:13;;;;;;;0.50;0.40;;;;;;;-2.90;82.61;100363.59;5064159;28;20056;-85
2021/12/25 00:59:40;;;;;;;1.48;0.22;;;;;;;-2.89;82.39;100364.50;5064506;28;20044;-85
2021/12/25 01:02:06;;;;;;;0.68;0.25;;;;;;;-2.88;83.02;100367.13;5028718;28;20047;-86
2021/12/25 01:04:33;;;;;;;0.98;0.65;;;;;;;-2.87;82.53;100374.00;5028891;28;20471;-86
2021/12/25 01:07:00;;;;;;;3.15;0.38;;;;;;;-2.84;82.70;100374.09;5028797;28;20048;-84
2021/12/25 01:09:27;;;;;;;0.22;0.20;;;;;;;-2.83;82.44;100370.75;5045192;28;20060;-86
2021/12/25 01:11:57;;;;;;;0.32;0.32;;;;;;;-2.86;81.53;100373.16;5042826;28;20052;-85
2021/12/25 01:14:33;;;;;;;0.55;0.55;;;;;;;-2.95;81.16;100377.91;5045266;28;20795;-85
2021/12/25 01:17:20;;;;;;;1.10;0.25;;;;;;;-3.04;81.21;100373.31;5058650;28;20044;-85
2021/12/25 01:20:11;;;;;;;2.38;0.95;;;;;;;-3.14;81.34;100377.94;5054636;28;20045;-85
2021/12/25 01:23:10;;;;;;;0.30;0.28;;;;;;;-3.30;80.53;100379.84;5051193;28;20048;-85
2021/12/25 01:31:10;;;;;;;0.88;0.63;;;;;;;-3.70;82.88;100371.34;5044298;28;20033;-86
2021/12/25 01:34:10;;;;;;;2.63;1.50;;;;;;;-3.75;82.16;100380.50;5032574;28;20103;-85
2021/12/25 01:36:47;;;;;;;3.10;0.40;;;;;;;-3.80;83.22;100383.66;5039518;28;20229;-86
2021/12/25 01:39:19;;;;;;;0.85;0.10;;;;;;;-3.88;83.76;100386.75;5037336;28;20052;-86
2021/12/25 01:42:07;;;;;;;0.77;0.40;;;;;;;-3.95;84.10;100387.28;5060077;28;20055;-86
2021/12/25 01:50:07;;;;;;;1.67;0.30;;;;;;;-4.12;84.27;100395.84;5050423;28;20029;-86
2021/12/25 01:52:35;;;;;;;15.48;6.30;;;;;;;-4.17;84.72;100393.97;5035333;28;20121;-86
2021/12/25 01:55:09;;;;;;;1.90;0.20;;;;;;;-4.20;84.17;100398.94;5050456;28;20054;-85
2021/12/25 01:57:35;;;;;;;2.57;0.33;;;;;;;-4.22;84.58;100402.25;5032782;28;20103;-85
2021/12/25 02:00:11;;;;;;;0.63;0.30;;;;;;;-4.26;83.56;100398.66;5044931;28;20381;-86
2021/12/25 02:02:38;;;;;;;0.60;0.13;;;;;;;-4.29;84.06;100403.59;5055849;28;20119;-86
2021/12/25 02:05:05;;;;;;;0.10;0.10;;;;;;;-4.31;83.52;100415.44;5047611;28;20040;-86
2021/12/25 02:07:32;;;;;;;2.55;0.38;;;;;;;-4.37;84.30;100420.25;5016102;28;20048;-85
2021/12/25 02:10:00;;;;;;;6.13;0.55;;;;;;;-4.42;84.59;100420.06;5049600;28;20144;-85
2021/12/25 02:12:26;;;;;;;1.08;0.10;;;;;;;-4.45;83.90;100414.78;5030410;28;20055;-85
2021/12/25 02:14:54;;;;;;;1.40;1.08;;;;;;;-4.46;84.76;100418.13;5037373;28;20037;-85
2021/12/25 02:17:26;;;;;;;0.40;0.20;;;;;;;-4.50;84.67;100418.81;5044282;28;20166;-85
2021/12/25 02:20:35;;;;;;;0.47;0.40;;;;;;;-4.55;84.57;100413.50;5036237;28;20124;-86
2021/12/25 02:23:22;;;;;;;1.60;0.30;;;;;;;-4.57;84.77;100415.06;5026057;28;20208;-85
2021/12/25 02:25:54;;;;;;;0.10;0.10;;;;;;;-4.59;85.13;100415.81;5031571;28;20044;-85
2021/12/25 02:28:33;;;;;;;0.60;0.13;;;;;;;-4.61;85.51;100410.63;5030402;28;20051;-86
2021/12/25 02:31:07;;;;;;;1.43;0.37;;;;;;;-4.64;85.28;100415.59;5047126;28;20044;-85
2021/12/25 02:33:34;;;;;;;0.90;0.90;;;;;;;-4.66;85.05;100414.63;5049795;28;20043;-85
2021/12/25 02:36:00;;;;;;;0.40;0.30;;;;;;;-4.66;84.84;100414.63;5058126;28;20294;-86
2021/12/25 02:38:28;;;;;;;0.20;0.10;;;;;;;-4.72;85.42;100411.78;5067141;28;20052;-85
2021/12/25 02:40:57;;;;;;;1.30;0.47;;;;;;;-4.74;85.34;100418.50;5057021;28;20518;-85
2021/12/25 02:43:24;;;;;;;1.40;0.27;;;;;;;-4.74;84.98;100421.06;5035740;28;20068;-86
2021/12/25 02:45:55;;;;;;;1.23;0.10;;;;;;;-4.77;85.41;100423.44;5033496;28;20495;-85
2021/12/25 02:48:23;;;;;;;0.23;0.23;;;;;;;-4.77;85.19;100429.44;5041029;28;20137;-85
2021/12/25 02:50:50;;;;;;;0.57;0.30;;;;;;;-4.80;85.32;100434.38;5067895;28;20048;-85
2021/12/25 02:53:17;;;;;;;2.83;0.30;;;;;;;-4.83;85.63;100435.09;5044831;28;20115;-85
2021/12/25 02:55:46;;;;;;;0.77;0.20;;;;;;;-4.86;86.09;100429.00;5033245;28;20525;-86
2021/12/25 02:58:14;;;;;;;0.43;0.20;;;;;;;-4.86;85.71;100431.56;5066315;28;20056;-86
2021/12/25 03:00:58;;;;;;;0.10;0.10;;;;;;;-4.90;86.71;100427.06;5061080;28;20380;-85
2021/12/25 03:03:25;;;;;;;0.20;0.08;;;;;;;-4.91;86.37;100426.19;5045577;28;20074;-85
2021/12/25 03:05:52;;;;;;;0.40;0.10;;;;;;;-4.93;86.60;100429.47;5054328;28;20127;-85
2021/12/25 03:08:21;;;;;;;0.63;0.37;;;;;;;-4.97;87.41;100430.13;5050785;28;20046;-86
2021/12/25 03:10:53;;;;;;;0.57;0.00;;;;;;;-4.97;87.67;100427.56;5049669;28;20571;-85
2021/12/25 03:13:32;;;;;;;1.30;0.10;;;;;;;-4.98;87.78;100426.69;5062746;28;20040;-85
2021/12/25 03:16:02;;;;;;;1.40;0.10;;;;;;;-4.97;88.40;100441.19;5044348;28;20044;-86
2021/12/25 03:18:35;;;;;;;0.50;0.20;;;;;;;-5.02;88.53;100443.53;5050391;28;20052;-85
2021/12/25 03:21:05;;;;;;;1.80;0.20;;;;;;;-5.06;89.14;100441.66;5045625;28;20088;-86
2021/12/25 03:23:34;;;;;;;6.83;3.07;;;;;;;-5.10;90.35;100447.38;5049156;28;20101;-86
2021/12/25 03:26:02;;;;;;;1.70;0.70;;;;;;;-5.09;90.52;100448.25;5054604;28;20040;-86
2021/12/25 03:28:33;;;;;;;0.50;0.20;;;;;;;-5.10;91.06;100451.59;5058697;28;20055;-85
2021/12/25 03:31:05;;;;;;;1.40;0.27;;;;;;;-5.15;91.29;100465.00;5044881;28;20060;-85
2021/12/25 03:33:33;;;;;;;0.37;0.30;;;;;;;-5.18;92.20;100456.31;5060434;28;20044;-84
2021/12/25 03:36:02;;;;;;;0.20;0.20;;;;;;;-5.18;92.74;100472.50;5051043;28;20055;-85
2021/12/25 03:38:30;;;;;;;2.53;0.33;;;;;;;-5.22;93.18;100473.13;5036686;28;20098;-85
2021/12/25 03:40:57;;;;;;;0.40;0.20;;;;;;;-5.25;93.87;100475.53;5028646;28;20044;-85
2021/12/25 03:43:25;;;;;;;0.63;0.30;;;;;;;-5.27;94.28;100476.25;5031836;28;21658;-86
2021/12/25 03:45:51;;;;;;;2.00;0.27;;;;;;;-5.31;95.12;100477.75;5035692;28;20048;-85
2021/12/25 03:48:42;;;;;;;1.77;0.20;;;;;;;-5.35;95.43;100468.19;5071073;28;20083;-85
2021/12/25 03:59:24;;;;;;;0.35;0.22;;;;;;;-5.49;96.65;100478.56;5038910;28;20051;-86
2021/12/25 04:01:54;;;;;;;1.80;0.37;;;;;;;-5.52;97.22;100483.50;5056759;28;20467;-85
2021/12/25 04:04:26;;;;;;;0.70;0.37;;;;;;;-5.55;97.10;100485.88;5028896;28;20044;-85
2021/12/25 04:07:01;;;;;;;2.23;0.50;;;;;;;-5.55;97.25;100497.78;5052100;28;20076;-85
2021/12/25 04:09:29;;;;;;;1.10;0.40;;;;;;;-5.61;97.56;100488.09;5044975;28;20138;-86
2021/12/25 04:12:04;;;;;;;0.67;0.27;;;;;;;-5.63;97.43;100493.91;5050961;28;20151;-85
2021/12/25 04:14:30;;;;;;;0.60;0.20;;;;;;;-5.68;97.63;100498.78;5055381;28;20044;-86
2021/12/25 04:17:00;;;;;;;1.10;0.83;;;;;;;-5.73;97.29;100495.13;5035711;28;22285;-85
2021/12/25 04:19:27;;;;;;;4.03;0.50;;;;;;;-5.79;97.73;100499.88;5060485;28;20040;-85
2021/12/25 04:21:58;;;;;;;1.80;0.87;;;;;;;-5.76;97.84;100500.91;5047685;28;20068;-84
2021/12/25 04:24:27;;;;;;;0.27;0.23;;;;;;;-5.77;97.72;100504.25;5053288;28;20070;-85
2021/12/25 04:26:54;;;;;;;0.83;0.50;;;;;;;-5.79;97.13;100505.84;5043514;28;20074;-85
2021/12/25 04:29:39;;;;;;;0.17;0.17;;;;;;;-5.79;97.45;100500.75;5062224;28;20047;-85
2021/12/25 04:49:45;;;;;;;;;;;;;;;-5.95;96.74;100504.13;5067532;28;20040;-84
2021/12/25 05:03:21;;;;;;;;;;;;;;;-5.96;95.46;100491.31;5044278;28;20524;-85
2021/12/25 05:05:48;;;;;;;1.13;0.30;;;;;;;-5.96;95.04;100489.63;5057275;28;20156;-85
2021/12/25 05:08:15;;;;;;;0.60;0.60;;;;;;;-6.03;95.37;100490.13;5053335;28;20557;-86
2021/12/25 05:10:41;;;;;;;1.10;0.30;;;;;;;-6.05;94.81;100481.50;5039030;28;20055;-85
2021/12/25 05:13:08;;;;;;;2.07;0.40;;;;;;;-6.05;95.03;100497.69;5055319;28;20144;-85
2021/12/25 05:15:35;;;;;;;0.73;0.30;;;;;;;-6.09;94.83;100485.53;5054015;28;20043;-85
2021/12/25 05:18:05;;;;;;;3.00;0.63;;;;;;;-6.11;94.19;100489.69;5035888;28;20052;-85
2021/12/25 05:20:32;;;;;;;0.40;0.13;;;;;;;-6.15;94.67;100496.28;5029536;28;20048;-85
2021/12/25 05:22:59;;;;;;;1.40;0.30;;;;;;;-6.16;94.33;100499.63;5069004;28;20076;-83
2021/12/25 05:25:25;;;;;;;0.83;0.30;;;;;;;-6.19;94.77;100506.22;5037524;28;20304;-85
2021/12/25 05:27:52;;;;;;;0.77;0.40;;;;;;;-6.19;94.43;100508.75;5049276;28;20052;-85
2021/12/25 05:30:19;;;;;;;4.67;0.83;;;;;;;-6.18;94.08;100518.16;5039608;28;20048;-85
2021/12/25 05:32:46;;;;;;;0.93;0.43;;;;;;;-6.23;94.55;100510.28;5032573;28;20498;-85
2021/12/25 05:35:13;;;;;;;2.67;0.77;;;;;;;-6.26;94.33;100516.88;5051739;28;20094;-85
2021/12/25 05:37:44;;;;;;;0.10;0.00;;;;;;;-6.32;94.51;100520.81;5033756;28;20052;-85
2021/12/25 05:40:13;;;;;;;0.30;0.20;;;;;;;-6.36;95.09;100526.53;5073966;28;20046;-85
2021/12/25 05:42:40;;;;;;;4.33;0.63;;;;;;;-6.38;95.40;100530.66;5030993;28;20065;-85
2021/12/25 05:45:08;;;;;;;0.40;0.10;;;;;;;-6.34;95.13;100527.47;5043829;28;20044;-85
2021/12/25 05:47:35;;;;;;;0.10;0.10;;;;;;;-6.33;95.01;100531.78;5052691;28;20593;-85
2021/12/25 05:50:01;;;;;;;1.90;0.17;;;;;;;-6.33;95.03;100530.94;5032461;28;20687;-85
2021/12/25 05:52:30;;;;;;;0.53;0.20;;;;;;;-6.37;94.86;100532.41;5050001;28;20040;-85
2021/12/25 05:54:57;;;;;;;2.83;0.20;;;;;;;-6.37;95.12;100539.19;5055882;28;20044;-85
2021/12/25 05:57:24;;;;;;;0.63;0.30;;;;;;;-6.38;95.61;100538.28;5056494;28;21231;-86
2021/12/25 05:59:51;;;;;;;1.13;0.40;;;;;;;-6.39;95.63;100540.75;5068897;28;20525;-85
2021/12/25 06:02:17;;;;;;;1.40;0.30;;;;;;;-6.44;95.92;100545.59;5041435;28;20054;-85
2021/12/25 06:04:44;;;;;;;2.37;0.13;;;;;;;-6.46;95.58;100546.31;5032086;28;20048;-85
2021/12/25 06:07:10;;;;;;;0.40;0.40;;;;;;;-6.47;96.77;100547.09;5067385;28;20039;-84
2021/12/25 06:09:38;;;;;;;1.30;1.10;;;;;;;-6.47;96.65;100553.06;5032032;28;20044;-85
2021/12/25 06:12:07;;;;;;;0.70;0.27;;;;;;;-6.46;96.33;100549.72;5066990;28;20050;-85
2021/12/25 06:14:34;;;;;;;0.40;0.20;;;;;;;-6.48;96.44;100558.94;5032445;28;20036;-85
2021/12/25 06:17:01;;;;;;;1.90;0.40;;;;;;;-6.51;96.68;100553.66;5049980;28;20411;-85
2021/12/25 06:19:28;;;;;;;0.33;0.30;;;;;;;-6.47;96.95;100570.00;5031578;28;20133;-85
2021/12/25 06:21:55;;;;;;;1.77;0.20;;;;;;;-6.47;96.50;100567.47;5012255;28;20580;-85
2021/12/25 06:24:22;;;;;;;0.97;0.27;;;;;;;-6.46;96.48;100580.28;5030009;28;20541;-85
2021/12/25 06:26:49;;;;;;;1.13;0.47;;;;;;;-6.49;95.77;100577.56;5025298;28;20049;-85
2021/12/25 06:29:19;;;;;;;0.87;0.27;;;;;;;-6.52;96.15;100570.63;5030567;28;20053;-86
2021/12/25 06:31:47;;;;;;;3.03;0.50;;;;;;;-6.51;96.06;100576.59;5016498;28;20061;-85
2021/12/25 06:34:14;;;;;;;0.70;0.33;;;;;;;-6.54;96.24;100576.41;5019912;28;20055;-85
2021/12/25 06:36:40;;;;;;;0.40;0.20;;;;;;;-6.56;96.35;100578.84;5030330;28;20059;-85
2021/12/25 06:39:11;;;;;;;0.73;0.20;;;;;;;-6.56;95.40;100567.78;5010968;28;20048;-85
2021/12/25 06:41:37;;;;;;;0.60;0.20;;;;;;;-6.53;95.28;100578.16;5049720;28;20056;-85
2021/12/25 06:44:07;;;;;;;2.23;0.20;;;;;;;-6.55;95.44;100570.44;5024416;28;20056;-85
2021/12/25 06:46:34;;;;;;;1.63;0.47;;;;;;;-6.57;94.93;100569.47;5027958;28;20080;-85
2021/12/25 06:49:00;;;;;;;1.60;0.20;;;;;;;-6.57;94.82;100577.13;5012810;28;20767;-84
2021/12/25 06:51:34;;;;;;;3.17;0.70;;;;;;;-6.59;95.17;100572.72;5038946;28;20045;-84
2021/12/25 06:54:01;;;;;;;0.65;0.30;;;;;;;-6.59;94.47;100572.72;5030787;28;20051;-85
2021/12/25 06:56:28;;;;;;;1.23;0.20;;;;;;;-6.59;93.88;100581.22;5033665;28;20049;-85
2021/12/25 06:58:54;;;;;;;0.83;0.20;;;;;;;-6.57;93.67;100573.66;5032646;28;20095;-85
2021/12/25 07:01:21;;;;;;;0.77;0.40;;;;;;;-6.60;93.46;100581.16;5044383;28;20041;-85
2021/12/25 07:03:48;;;;;;;2.27;0.20;;;;;;;-6.63;93.34;100591.13;5023694;28;20134;-85
2021/12/25 07:06:18;;;;;;;1.23;0.20;;;;;;;-6.63;92.77;100589.47;5015250;28;20140;-86
2021/12/25 07:08:47;;;;;;;3.13;0.40;;;;;;;-6.63;92.82;100596.22;5028157;28;21266;-85
2021/12/25 07:11:14;;;;;;;0.97;0.20;;;;;;;-6.67;93.18;100595.19;5020716;28;20072;-84
2021/12/25 07:13:44;;;;;;;1.63;0.17;;;;;;;-6.65;92.82;100603.78;5047444;28;20056;-84
2021/12/25 07:16:11;;;;;;;0.40;0.17;;;;;;;-6.63;92.99;100607.31;5039020;28;20048;-85
2021/12/25 07:18:40;;;;;;;2.10;0.20;;;;;;;-6.69;92.15;100609.47;5030351;28;20061;-85
2021/12/25 07:21:07;;;;;;;1.23;0.30;;;;;;;-6.67;92.63;100602.81;5030219;28;20045;-85
2021/12/25 07:23:36;;;;;;;0.63;0.20;;;;;;;-6.68;92.27;100608.69;5034316;28;20057;-84
2021/12/25 07:26:04;;;;;;;1.90;0.30;;;;;;;-6.70;92.39;100616.25;5018993;28;20095;-85
2021/12/25 07:28:33;;;;;;;1.17;0.50;;;;;;;-6.69;91.59;100614.56;5048575;28;20048;-85
2021/12/25 07:31:00;;;;;;;0.27;0.27;;;;;;;-6.70;92.27;100616.25;5024625;28;20044;-85
2021/12/25 07:33:31;;;;;;;3.20;0.30;;;;;;;-6.70;92.14;100615.34;5030750;28;20047;-85
2021/12/25 07:35:58;;;;;;;0.63;0.23;;;;;;;-6.70;92.31;100620.44;5038804;28;20131;-84
2021/12/25 07:38:25;;;;;;;2.63;0.10;;;;;;;-6.69;91.74;100623.09;5015366;28;20045;-85
2021/12/25 07:40:52;;;;;;;0.40;0.10;;;;;;;-6.70;92.40;100628.06;5022630;28;20059;-85
2021/12/25 07:43:19;;;;;;;0.60;0.20;;;;;;;-6.70;92.04;100628.97;5041378;28;20048;-85
2021/12/25 07:45:47;;;;;;;0.30;0.20;;;;;;;-6.67;91.05;100634.25;5019064;28;20049;-85
2021/12/25 07:48:19;;;;;;;0.30;0.20;;;;;;;-6.59;90.51;100637.25;5039290;28;20037;-84
2021/12/25 07:50:45;;;;;;;1.80;0.40;;;;;;;-6.55;90.01;100636.63;5032395;28;20056;-85
2021/12/25 07:53:12;;;;;;;0.67;0.10;;;;;;;-6.50;89.72;100639.47;5036858;28;21131;-85
2021/12/25 07:55:40;;;;;;;1.27;0.23;;;;;;;-6.50;90.33;100634.38;5038730;28;20049;-85
2021/12/25 07:58:07;;;;;;;0.43;0.40;;;;;;;-6.41;89.48;100641.66;5019565;28;20144;-84
2021/12/25 08:00:34;;;;;;;0.80;0.50;;;;;;;-6.40;88.80;100646.88;5048848;28;20106;-85
2021/12/25 08:03:07;;;;;;;1.23;0.30;;;;;;;-6.39;87.76;100640.97;5046021;28;20059;-85
2021/12/25 08:05:35;;;;;;;3.73;0.30;;;;;;;-6.36;87.37;100642.81;5026045;28;20036;-84
2021/12/25 08:08:03;;;;;;;2.90;0.20;;;;;;;-6.34;87.22;100646.34;5014905;28;20135;-84
2021/12/25 08:10:33;;;;;;;1.90;0.53;;;;;;;-6.35;87.71;100645.47;5013189;28;20054;-83
2021/12/25 08:13:00;;;;;;;2.80;0.60;;;;;;;-6.36;88.16;100646.25;5051393;28;20131;-85
2021/12/25 08:15:30;;;;;;;0.77;0.27;;;;;;;-6.36;87.84;100648.81;5002648;28;20052;-84
2021/12/25 08:18:00;;;;;;;1.93;0.57;;;;;;;-6.38;87.37;100652.06;5018459;28;20075;-84
2021/12/25 08:20:39;;;;;;;0.60;0.30;;;;;;;-6.41;87.52;100651.84;5033348;28;20056;-84
2021/12/25 08:23:05;;;;;;;0.40;0.20;;;;;;;-6.44;87.45;100651.69;5017596;28;20045;-85
2021/12/25 08:25:32;;;;;;;2.03;0.40;;;;;;;-6.45;87.61;100657.56;5050236;28;20048;-84
2021/12/25 08:28:00;;;;;;;0.30;0.23;;;;;;;-6.42;87.61;100660.31;5024157;28;20060;-85
2021/12/25 08:30:28;;;;;;;4.53;0.33;;;;;;;-6.44;86.65;100665.31;5010352;28;20055;-84
2021/12/25 08:32:58;;;;;;;0.37;0.13;;;;;;;-6.44;86.54;100670.41;5021403;28;20060;-85
2021/12/25 08:35:28;;;;;;;2.70;0.40;;;;;;;-6.44;86.69;100670.41;5011212;28;20427;-85
2021/12/25 08:37:55;;;;;;;1.83;0.73;;;;;;;-6.43;86.39;100668.72;5027796;28;20083;-85
2021/12/25 08:40:26;;;;;;;1.10;0.57;;;;;;;-6.39;85.84;100674.06;5022692;28;20570;-85
2021/12/25 08:42:58;;;;;;;1.40;0.50;;;;;;;-6.35;85.92;100678.59;5046655;28;20060;-85
2021/12/25 08:45:41;;;;;;;0.73;0.73;;;;;;;-6.38;85.80;100674.97;5035482;28;20056;-85
2021/12/25 08:48:20;;;;;;;1.08;0.40;;;;;;;-6.39;85.67;100674.06;5028055;28;20060;-85
2021/12/25 08:51:00;;;;;;;2.00;0.30;;;;;;;-6.42;86.59;100678.13;5044723;28;20101;-85
2021/12/25 08:53:28;;;;;;;2.37;0.57;;;;;;;-6.38;85.30;100678.38;5012725;28;20487;-85
2021/12/25 08:55:58;;;;;;;1.90;0.93;;;;;;;-6.38;85.47;100683.47;5015442;28;20130;-85
2021/12/25 08:58:30;;;;;;;1.60;0.60;;;;;;;-6.37;84.91;100687.78;5007784;28;20068;-85
2021/12/25 09:01:00;;;;;;;10.20;0.60;;;;;;;-6.34;84.79;100684.56;5016558;28;20088;-85
2021/12/25 09:03:28;;;;;;;0.40;0.20;;;;;;;-6.35;84.72;100688.78;5009000;28;20118;-85
2021/12/25 09:05:58;;;;;;;2.10;0.27;;;;;;;-6.39;85.05;100697.00;5031103;28;20048;-85
2021/12/25 09:08:26;;;;;;;3.43;0.87;;;;;;;-6.42;85.44;100699.38;5015838;28;20281;-85
2021/12/25 09:10:54;;;;;;;1.40;0.37;;;;;;;-6.43;85.43;100697.59;5028341;28;20502;-85
2021/12/25 09:13:21;;;;;;;3.60;0.20;;;;;;;-6.41;85.67;100701.13;5030432;28;20048;-85
2021/12/25 09:15:48;;;;;;;0.97;0.80;;;;;;;-6.39;85.27;100698.69;5029286;28;20044;-84
2021/12/25 09:18:14;;;;;;;0.67;0.30;;;;;;;-6.38;85.64;100708.94;5013242;28;20060;-85
2021/12/25 09:20:41;;;;;;;2.40;0.27;;;;;;;-6.36;85.12;100712.50;5047407;28;20133;-85
2021/12/25 09:23:08;;;;;;;2.13;0.70;;;;;;;-6.36;85.07;100709.03;5009192;28;21584;-85
2021/12/25 09:25:35;;;;;;;2.87;0.77;;;;;;;-6.40;85.48;100712.19;5031580;28;20137;-84
2021/12/25 09:28:02;;;;;;;1.50;0.70;;;;;;;-6.41;86.38;100716.44;5020778;28;20044;-84
2021/12/25 09:30:29;;;;;;;2.63;0.90;;;;;;;-6.40;86.28;100719.84;5028274;28;20052;-84
2021/12/25 09:32:59;;;;;;;1.17;0.37;;;;;;;-6.39;86.78;100732.66;5022260;28;20407;-85
2021/12/25 09:35:25;;;;;;;2.10;0.57;;;;;;;-6.38;86.21;100728.47;5008907;28;20059;-84
2021/12/25 09:37:52;;;;;;;1.67;0.43;;;;;;;-6.35;86.01;100721.91;5015300;28;20045;-85
2021/12/25 09:40:19;;;;;;;2.37;0.30;;;;;;;-6.35;85.92;100716.81;5022388;28;20048;-84
2021/12/25 09:42:46;;;;;;;2.13;0.40;;;;;;;-6.37;86.57;100720.03;5027798;28;20044;-84
2021/12/25 09:45:20;;;;;;;0.43;0.33;;;;;;;-6.38;86.70;100721.69;5038851;28;20041;-84
2021/12/25 09:47:49;;;;;;;3.90;0.67;;;;;;;-6.32;86.71;100726.28;5009807;28;20040;-84
2021/12/25 09:50:17;;;;;;;2.67;1.10;;;;;;;-6.31;85.94;100730.56;5025870;28;20048;-84
2021/12/25 09:52:44;;;;;;;2.43;0.50;;;;;;;-6.30;86.28;100731.47;4998429;28;20059;-84
2021/12/25 09:55:13;;;;;;;2.67;0.60;;;;;;;-6.28;86.62;100720.59;5040718;28;20052;-84
2021/12/25 09:57:40;;;;;;;2.67;1.10;;;;;;;-6.24;86.00;100721.66;5024019;28;20072;-84
2021/12/25 10:00:20;;;;;;;2.80;0.60;;;;;;;-6.23;86.28;100726.84;5012192;28;20080;-84
2021/12/25 10:02:53;;;;;;;0.87;0.33;;;;;;;-6.17;85.47;100727.19;5027525;28;20410;-84
2021/12/25 10:05:36;;;;;;;1.70;0.53;;;;;;;-6.10;85.17;100728.47;5008623;28;20366;-84
2021/12/25 10:08:17;;;;;;;6.55;1.10;;;;;;;-6.04;84.96;100728.78;5027706;28;20273;-84
2021/12/25 10:11:02;;;;;;;1.87;0.43;;;;;;;-5.95;83.06;100723.34;5036966;28;20036;-84
2021/12/25 10:13:36;;;;;;;0.30;0.30;;;;;;;-5.93;83.07;100725.97;5045392;28;20072;-84
2021/12/25 10:16:38;;;;;;;1.60;0.98;;;;;;;-5.90;84.09;100738.91;5021031;28;20119;-84
2021/12/25 10:19:21;;;;;;;1.20;0.67;;;;;;;-5.83;83.37;100733.38;4975245;28;20050;-85
2021/12/25 10:21:49;;;;;;;1.30;0.70;;;;;;;-5.76;81.84;100729.50;5005874;28;20082;-84
2021/12/25 10:24:26;;;;;;;1.90;0.77;;;;;;;-5.76;82.39;100724.41;5045154;28;20049;-84
2021/12/25 10:26:54;;;;;;;2.57;0.50;;;;;;;-5.72;81.33;100716.13;5030338;28;20041;-85
2021/12/25 10:29:27;;;;;;;1.30;0.57;;;;;;;-5.69;80.66;100719.75;5027789;28;20653;-84
2021/12/25 10:32:02;;;;;;;1.95;1.80;;;;;;;-5.70;81.53;100725.63;5014948;28;20049;-84
2021/12/25 10:34:32;;;;;;;1.53;0.80;;;;;;;-5.61;80.35;100714.22;5024263;28;20107;-84
2021/12/25 10:37:13;;;;;;;5.07;2.17;;;;;;;-5.56;79.56;100708.56;5041665;28;20056;-84
2021/12/25 10:39:41;;;;;;;0.73;0.67;;;;;;;-5.52;77.84;100723.25;5025825;28;20044;-84
2021/12/25 10:42:29;;;;;;;1.43;1.30;;;;;;;-5.48;77.82;100711.56;5027956;28;20114;-84
2021/12/25 10:45:05;;;;;;;1.33;0.57;;;;;;;-5.48;78.15;100716.66;5006984;28;20048;-85
2021/12/25 10:47:32;;;;;;;4.73;0.70;;;;;;;-5.48;77.72;100712.44;5019542;28;20044;-85
2021/12/25 10:50:10;;;;;;;2.33;0.40;;;;;;;-5.44;76.93;100699.88;5026081;28;20218;-85
2021/12/25 10:52:42;;;;;;;0.70;0.70;;;;;;;-5.41;77.10;100712.78;5020597;28;20048;-85
2021/12/25 10:55:16;;;;;;;0.73;0.37;;;;;;;-5.42;78.07;100706.81;5024461;28;20049;-85
2021/12/25 10:57:46;;;;;;;1.63;0.33;;;;;;;-5.40;76.70;100705.22;5035648;28;20575;-85
2021/12/25 11:00:21;;;;;;;6.33;0.93;;;;;;;-5.35;75.82;100706.34;5024917;28;20052;-85
2021/12/25 11:03:17;;;;;;;1.97;0.30;;;;;;;-5.35;77.15;100708.91;5014290;28;20048;-84
2021/12/25 11:05:48;;;;;;;1.17;0.23;;;;;;;-5.29;75.92;100698.19;5007814;28;20271;-85
2021/12/25 11:08:25;;;;;;;1.03;0.57;;;;;;;-5.25;76.03;100702.66;5037866;28;20048;-85
2021/12/25 11:11:05;;;;;;;1.97;0.40;;;;;;;-5.23;75.97;100695.94;5012187;28;20052;-85
2021/12/25 11:13:42;;;;;;;3.03;0.50;;;;;;;-5.22;76.37;100699.41;5021893;28;20411;-85
2021/12/25 11:16:16;;;;;;;0.77;0.23;;;;;;;-5.24;76.89;100703.53;5041400;28;20053;-85
2021/12/25 11:19:08;;;;;;;0.75;0.40;;;;;;;-5.25;75.96;100701.75;5027172;28;20045;-85
2021/12/25 11:21:39;;;;;;;2.60;0.57;;;;;;;-5.18;74.66;100706.41;5021240;28;20561;-85
2021/12/25 11:24:10;;;;;;;1.27;1.03;;;;;;;-5.17;75.48;100711.59;5025016;28;20898;-84
2021/12/25 11:26:39;;;;;;;2.27;0.43;;;;;;;-5.10;74.03;100707.72;5038672;28;20541;-85
2021/12/25 11:29:09;;;;;;;1.37;0.17;;;;;;;-5.04;73.86;100704.63;5027504;28;20055;-84
2021/12/25 11:31:36;;;;;;;1.27;0.50;;;;;;;-4.99;72.63;100690.44;5009920;28;20094;-85
2021/12/25 11:34:05;;;;;;;1.17;0.60;;;;;;;-4.97;72.88;100703.28;5025304;28;20183;-85
2021/12/25 11:36:32;;;;;;;1.80;0.40;;;;;;;-4.94;72.37;100688.13;5032167;28;20039;-84
2021/12/25 11:39:00;;;;;;;2.10;0.20;;;;;;;-4.93;72.66;100705.22;5040204;28;20060;-84
2021/12/25 11:41:32;;;;;;;1.23;0.40;;;;;;;-4.94;72.62;100706.00;5045255;28;20048;-84
2021/12/25 11:44:00;;;;;;;2.10;0.40;;;;;;;-4.93;72.46;100711.19;5027587;28;22350;-83
2021/12/25 11:46:44;;;;;;;0.40;0.40;;;;;;;-4.94;73.17;100698.34;5029872;28;20051;-84
2021/12/25 11:49:15;;;;;;;;;;;;;;;-4.95;74.46;100701.69;5029202;28;20056;-85
2021/12/25 11:51:44;;;;;;;2.30;0.30;;;;;;;-4.95;73.81;100701.69;5027802;28;19928;-84
2021/12/25 11:54:59;;;;;;;1.50;0.20;;;;;;;-4.92;72.99;100701.88;5012433;28;20058;-85
2021/12/25 11:57:55;;;;;;;1.38;0.40;;;;;;;-4.88;71.90;100698.69;5032824;28;20041;-85
2021/12/25 12:00:41;;;;;;;2.47;1.17;;;;;;;-4.86;72.02;100700.53;5031260;28;20686;-85
2021/12/25 12:03:09;;;;;;;0.73;0.20;;;;;;;-4.84;71.82;100698.03;5022130;28;20037;-84
2021/12/25 12:05:38;;;;;;;0.20;0.20;;;;;;;-4.84;72.50;100704.06;5016391;28;20154;-84
2021/12/25 12:08:15;;;;;;;0.67;0.27;;;;;;;-4.82;72.41;100707.53;5032502;28;20055;-85
2021/12/25 12:10:47;;;;;;;0.93;0.20;;;;;;;-4.85;72.88;100692.06;5037336;28;20041;-85
2021/12/25 12:13:30;;;;;;;1.17;0.30;;;;;;;-4.86;73.49;100687.75;5042574;28;20088;-85
2021/12/25 12:16:06;;;;;;;3.77;0.40;;;;;;;-4.86;73.90;100690.31;5036121;28;20045;-85
2021/12/25 12:18:36;;;;;;;0.93;0.40;;;;;;;-4.84;73.94;100692.94;5051225;28;20445;-85
2021/12/25 12:21:18;;;;;;;2.43;0.40;;;;;;;-4.84;74.00;100686.19;5025569;28;20114;-85
2021/12/25 12:23:56;;;;;;;3.47;0.50;;;;;;;-4.82;72.79;100689.66;5048751;28;20099;-84
2021/12/25 12:26:44;;;;;;;0.40;0.40;;;;;;;-4.77;73.36;100686.47;5026279;28;20068;-85
2021/12/25 12:29:13;;;;;;;0.37;0.23;;;;;;;-4.76;72.57;100683.13;5030870;28;20140;-85
2021/12/25 12:31:48;;;;;;;1.20;0.50;;;;;;;-4.72;73.11;100674.84;5011243;28;20384;-84
2021/12/25 12:34:38;;;;;;;2.93;0.67;;;;;;;-4.75;73.69;100683.22;5027750;28;20103;-85